Time;durP1;ratioP1;P1;durP2;ratioP2;P2;SDS_P1;SDS_P2;PMS_P1;PMS_P2;Temp;Humidity;BMP_temperature;BMP_pressure;BME280_temperature;BME280_humidity;BME280_pressure;Samples;Min_cycle;Max_cycle;Signal;HPM_P1;HPM_P2
2021/10/26 00:01:47;;;;;;;2.63;2.53;;;13.10;1.00;;;;;;5035224;28;20192;-66
2021/10/26 00:04:12;;;;;;;0.50;0.40;;;13.00;1.00;;;;;;5034174;28;20201;-67
2021/10/26 00:06:38;;;;;;;0.30;0.20;;;13.00;1.00;;;;;;5034328;28;20188;-66
2021/10/26 00:09:05;;;;;;;0.50;0.40;;;13.00;1.00;;;;;;5033832;28;20622;-66
2021/10/26 00:11:32;;;;;;;0.50;0.40;;;13.20;1.00;;;;;;5034028;28;20460;-66
2021/10/26 00:13:58;;;;;;;0.30;0.20;;;13.30;1.00;;;;;;5034118;28;20661;-66
2021/10/26 00:16:24;;;;;;;0.30;0.10;;;13.20;1.00;;;;;;5034394;28;20177;-66
2021/10/26 00:18:50;;;;;;;0.30;0.17;;;13.20;1.00;;;;;;5033976;28;20460;-66
2021/10/26 00:21:16;;;;;;;1.70;1.60;;;12.90;1.00;;;;;;5034023;28;20255;-66
2021/10/26 00:23:42;;;;;;;0.30;0.20;;;13.00;1.00;;;;;;5034173;28;20768;-66
2021/10/26 00:26:08;;;;;;;0.30;0.20;;;13.00;1.00;;;;;;5034322;28;20174;-66
2021/10/26 00:28:34;;;;;;;0.40;0.40;;;13.00;1.00;;;;;;5033637;28;20673;-67
2021/10/26 00:31:01;;;;;;;0.30;0.10;;;13.20;1.00;;;;;;5033940;28;20266;-66
2021/10/26 00:33:28;;;;;;;0.30;0.20;;;13.10;1.00;;;;;;5033844;28;20195;-66
2021/10/26 00:35:53;;;;;;;0.40;0.30;;;12.90;1.00;;;;;;5016451;28;20177;-66
2021/10/26 00:38:19;;;;;;;0.30;0.20;;;12.80;1.00;;;;;;5033556;28;20186;-66
2021/10/26 00:40:46;;;;;;;0.30;0.20;;;12.90;1.00;;;;;;5033910;28;20608;-66
2021/10/26 00:43:12;;;;;;;0.30;0.20;;;12.80;1.00;;;;;;5033812;28;20486;-66
2021/10/26 00:45:38;;;;;;;0.40;0.30;;;12.80;1.00;;;;;;5033874;28;20192;-66
2021/10/26 00:48:04;;;;;;;0.30;0.10;;;12.90;1.00;;;;;;5033750;28;20181;-66
2021/10/26 00:50:29;;;;;;;2.40;2.30;;;13.00;1.00;;;;;;5033565;28;20208;-66
2021/10/26 00:52:55;;;;;;;0.30;0.10;;;13.10;1.00;;;;;;5033808;28;20727;-66
2021/10/26 00:55:21;;;;;;;1.30;1.07;;;13.10;1.00;;;;;;5034489;28;20170;-67
2021/10/26 00:57:47;;;;;;;0.30;0.20;;;13.00;31.30;;;;;;5033511;28;20217;-66
2021/10/26 01:00:15;;;;;;;1.58;0.73;;;13.00;63.80;;;;;;5033717;28;20185;-66
2021/10/26 01:02:43;;;;;;;0.30;0.20;;;12.80;91.70;;;;;;5034024;28;20250;-65
2021/10/26 01:05:09;;;;;;;0.30;0.20;;;12.80;99.90;;;;;;5033803;28;20204;-66
2021/10/26 01:07:35;;;;;;;0.40;0.20;;;12.70;99.90;;;;;;5016038;28;20205;-66
2021/10/26 01:10:00;;;;;;;0.50;0.28;;;12.70;99.90;;;;;;5015816;28;20428;-66
2021/10/26 01:12:29;;;;;;;0.90;0.80;;;12.70;99.90;;;;;;5033678;28;20193;-66
2021/10/26 01:14:55;;;;;;;1.10;1.05;;;12.50;99.90;;;;;;5033582;28;20223;-66
2021/10/26 01:17:22;;;;;;;1.50;1.40;;;12.30;99.90;;;;;;5033337;28;20525;-66
2021/10/26 01:19:50;;;;;;;0.30;0.30;;;12.40;99.90;;;;;;5033203;28;20174;-67
2021/10/26 01:22:18;;;;;;;0.35;0.28;;;12.30;99.90;;;;;;5033816;28;20251;-66
2021/10/26 01:24:45;;;;;;;1.10;1.10;;;12.40;99.90;;;;;;5016290;28;20212;-66
2021/10/26 01:27:10;;;;;;;5.55;2.03;;;12.40;99.90;;;;;;5033434;28;20201;-66
2021/10/26 01:29:37;;;;;;;0.43;0.40;;;12.50;99.90;;;;;;5033769;28;20174;-65
2021/10/26 01:32:04;;;;;;;0.40;0.30;;;12.40;99.90;;;;;;5033164;28;20590;-66
2021/10/26 01:34:30;;;;;;;2.38;2.17;;;12.40;99.90;;;;;;5033247;28;20242;-66
2021/10/26 01:37:01;;;;;;;0.73;0.73;;;12.30;99.90;;;;;;5033866;28;20173;-66
2021/10/26 01:39:27;;;;;;;2.15;1.25;;;12.30;99.90;;;;;;5033862;28;20193;-66
2021/10/26 01:41:53;;;;;;;2.58;1.70;;;12.10;99.90;;;;;;5036971;28;20185;-66
2021/10/26 01:44:19;;;;;;;0.70;0.70;;;12.20;99.90;;;;;;5037258;28;20192;-66
2021/10/26 01:46:45;;;;;;;2.13;1.03;;;12.10;99.90;;;;;;5036895;28;20181;-67
2021/10/26 01:49:10;;;;;;;1.40;0.80;;;12.10;99.90;;;;;;5036639;28;20189;-66
2021/10/26 01:51:36;;;;;;;2.10;2.00;;;12.10;99.90;;;;;;5036640;28;20881;-66
2021/10/26 01:54:02;;;;;;;0.50;0.50;;;12.00;99.90;;;;;;5036793;28;20178;-66
2021/10/26 01:56:28;;;;;;;0.73;0.73;;;11.90;99.90;;;;;;5036795;28;20244;-66
2021/10/26 01:58:53;;;;;;;1.63;1.63;;;12.00;99.90;;;;;;5036775;28;20182;-66
2021/10/26 02:01:19;;;;;;;0.30;0.20;;;11.90;99.90;;;;;;5036641;28;20180;-66
2021/10/26 02:03:48;;;;;;;2.13;0.53;;;11.90;99.90;;;;;;5036612;28;20181;-66
2021/10/26 02:06:13;;;;;;;4.80;3.42;;;12.10;99.90;;;;;;5036231;28;20519;-67
2021/10/26 02:08:39;;;;;;;1.30;1.30;;;12.10;99.90;;;;;;5036549;28;20273;-66
2021/10/26 02:11:04;;;;;;;0.77;0.77;;;11.90;99.90;;;;;;5036377;28;20215;-66
2021/10/26 02:13:30;;;;;;;1.00;1.00;;;11.90;99.90;;;;;;5036373;28;20189;-66
2021/10/26 02:15:56;;;;;;;0.80;0.80;;;11.70;99.90;;;;;;5036564;28;20181;-66
2021/10/26 02:18:22;;;;;;;3.00;1.23;;;11.80;99.90;;;;;;5036203;28;20285;-66
2021/10/26 02:20:47;;;;;;;0.30;0.20;;;11.80;99.90;;;;;;5036293;28;20260;-66
2021/10/26 02:23:13;;;;;;;7.07;3.07;;;11.80;99.90;;;;;;5036283;28;20186;-67
2021/10/26 02:25:39;;;;;;;1.80;1.70;;;11.90;99.90;;;;;;5036257;28;20283;-66
2021/10/26 02:28:04;;;;;;;0.30;0.20;;;11.80;99.90;;;;;;5035890;28;20178;-66
2021/10/26 02:30:30;;;;;;;2.33;2.13;;;12.00;99.90;;;;;;5002272;28;20202;-66
2021/10/26 02:32:55;;;;;;;0.70;0.60;;;12.00;99.90;;;;;;5036089;28;20603;-66
2021/10/26 02:35:21;;;;;;;0.30;0.10;;;12.00;99.90;;;;;;5035921;28;20177;-66
2021/10/26 02:37:47;;;;;;;1.77;1.17;;;12.20;99.90;;;;;;5036098;28;20208;-66
2021/10/26 02:40:12;;;;;;;0.30;0.20;;;12.20;99.90;;;;;;5035670;28;20182;-66
2021/10/26 02:42:38;;;;;;;0.30;0.20;;;12.20;99.90;;;;;;5035782;28;20251;-66
2021/10/26 02:45:05;;;;;;;0.97;0.97;;;12.20;99.90;;;;;;5035863;28;20805;-66
2021/10/26 02:47:31;;;;;;;1.70;1.60;;;12.20;99.90;;;;;;5035803;28;20181;-66
2021/10/26 02:49:56;;;;;;;2.57;2.47;;;12.10;99.90;;;;;;5035343;28;20771;-66
2021/10/26 02:52:22;;;;;;;0.30;0.20;;;12.20;99.90;;;;;;5035352;28;20458;-67
2021/10/26 02:54:48;;;;;;;0.57;0.55;;;12.10;99.90;;;;;;5035554;28;20256;-67
2021/10/26 02:57:15;;;;;;;2.93;1.87;;;12.20;99.90;;;;;;5035549;28;20256;-67
2021/10/26 02:59:40;;;;;;;3.00;1.67;;;12.20;99.90;;;;;;5034885;28;20428;-68
2021/10/26 03:02:06;;;;;;;0.90;0.87;;;12.10;99.90;;;;;;5035497;28;20189;-66
2021/10/26 03:04:31;;;;;;;4.10;3.70;;;12.00;99.90;;;;;;5035786;28;20184;-66
2021/10/26 03:06:57;;;;;;;1.70;1.60;;;12.00;99.90;;;;;;5035495;28;20188;-66
2021/10/26 03:09:23;;;;;;;0.30;0.20;;;12.10;99.90;;;;;;5035243;28;20181;-66
2021/10/26 03:11:49;;;;;;;0.30;0.20;;;12.00;99.90;;;;;;5035097;28;20201;-66
2021/10/26 03:14:14;;;;;;;0.30;0.20;;;12.10;99.90;;;;;;5017995;28;20436;-66
2021/10/26 03:16:40;;;;;;;2.60;1.93;;;12.30;99.90;;;;;;5035479;28;20220;-66
2021/10/26 03:19:05;;;;;;;0.30;0.30;;;12.20;99.90;;;;;;5034865;28;20208;-66
2021/10/26 03:21:33;;;;;;;0.40;0.30;;;12.30;99.90;;;;;;5034970;28;20243;-66
2021/10/26 03:23:59;;;;;;;3.90;3.50;;;12.40;99.90;;;;;;5017663;28;20173;-67
2021/10/26 03:26:25;;;;;;;0.30;0.20;;;12.20;99.90;;;;;;5035011;28;20272;-66
2021/10/26 03:28:50;;;;;;;0.30;0.20;;;12.20;99.90;;;;;;5034992;28;20245;-66
2021/10/26 03:31:16;;;;;;;2.10;0.83;;;12.20;99.90;;;;;;5034726;28;20201;-66
2021/10/26 03:33:41;;;;;;;2.40;2.30;;;12.30;99.90;;;;;;5034812;28;20230;-66
2021/10/26 03:36:07;;;;;;;3.33;2.93;;;12.20;99.90;;;;;;5034532;28;20191;-66
2021/10/26 03:38:35;;;;;;;0.97;0.97;;;12.20;99.90;;;;;;5034595;28;20224;-66
2021/10/26 03:41:02;;;;;;;0.30;0.10;;;12.20;99.90;;;;;;5034824;28;20185;-66
2021/10/26 03:43:28;;;;;;;1.38;0.57;;;12.10;99.90;;;;;;5035234;28;20400;-67
2021/10/26 03:45:53;;;;;;;0.63;0.60;;;12.30;99.90;;;;;;5034449;28;20302;-67
2021/10/26 03:48:20;;;;;;;0.30;0.20;;;12.20;99.90;;;;;;5034229;28;20628;-67
2021/10/26 03:50:46;;;;;;;1.65;1.60;;;12.00;99.90;;;;;;5034436;28;20464;-67
2021/10/26 03:53:12;;;;;;;0.30;0.20;;;11.90;99.90;;;;;;5017194;28;20170;-67
2021/10/26 03:55:37;;;;;;;0.97;0.67;;;11.80;99.90;;;;;;5034210;28;20272;-67
2021/10/26 03:58:07;;;;;;;0.30;0.20;;;11.70;99.90;;;;;;5034047;28;20184;-67
2021/10/26 04:00:33;;;;;;;0.30;0.20;;;11.50;99.90;;;;;;5015633;28;20239;-67
2021/10/26 04:02:58;;;;;;;1.63;1.52;;;11.60;99.90;;;;;;5033675;28;20252;-66
2021/10/26 04:05:37;;;;;;;0.30;0.20;;;11.50;99.90;;;;;;5034294;28;20614;-66
2021/10/26 04:08:51;;;;;;;0.30;0.20;;;11.50;99.90;;;;;;5034575;28;20189;-66
2021/10/26 04:10:55;;;;;;;4.82;1.23;;;11.50;99.90;;;;;;5025740;28;20232;-66
2021/10/26 04:13:23;;;;;;;1.67;1.17;;;11.40;99.90;;;;;;5034099;28;20279;-66
2021/10/26 04:15:49;;;;;;;0.90;0.90;;;11.30;99.90;;;;;;5034302;28;20178;-66
2021/10/26 04:18:15;;;;;;;0.65;0.60;;;11.30;99.90;;;;;;5033931;28;20177;-66
2021/10/26 04:20:40;;;;;;;0.30;0.20;;;11.30;99.90;;;;;;5033757;28;20177;-66
2021/10/26 04:23:06;;;;;;;0.57;0.57;;;11.50;99.90;;;;;;5033865;28;20251;-66
2021/10/26 04:25:32;;;;;;;0.30;0.20;;;11.60;99.90;;;;;;5033552;28;20196;-67
2021/10/26 04:27:59;;;;;;;3.50;3.30;;;11.60;99.90;;;;;;5033738;28;20189;-67
2021/10/26 04:30:25;;;;;;;0.75;0.75;;;11.60;99.90;;;;;;5033690;28;20209;-67
2021/10/26 04:32:50;;;;;;;0.30;0.20;;;11.60;99.90;;;;;;5016319;28;20575;-66
2021/10/26 04:35:16;;;;;;;0.90;0.77;;;11.60;99.90;;;;;;5033697;28;20177;-66
2021/10/26 04:37:41;;;;;;;0.30;0.20;;;11.70;99.90;;;;;;5033563;28;20605;-66
2021/10/26 04:40:08;;;;;;;0.30;0.20;;;11.90;99.90;;;;;;5033285;28;20188;-66
2021/10/26 04:42:33;;;;;;;1.30;1.02;;;12.00;99.90;;;;;;5033342;28;20177;-66
2021/10/26 04:45:00;;;;;;;2.10;1.07;;;12.10;99.90;;;;;;5033487;28;20458;-67
2021/10/26 04:47:26;;;;;;;0.90;0.82;;;12.00;99.90;;;;;;5033419;28;20173;-66
2021/10/26 04:49:53;;;;;;;1.25;1.25;;;11.90;99.90;;;;;;5033718;28;20228;-67
2021/10/26 04:52:19;;;;;;;3.25;2.47;;;12.00;99.90;;;;;;5033563;28;20263;-67
2021/10/26 04:54:45;;;;;;;0.80;0.80;;;12.10;99.90;;;;;;5033128;28;20555;-66
2021/10/26 04:57:10;;;;;;;7.33;4.53;;;12.20;99.90;;;;;;5033542;28;20428;-66
2021/10/26 04:59:36;;;;;;;0.87;0.87;;;12.10;99.90;;;;;;5033211;28;20177;-66
2021/10/26 05:02:01;;;;;;;0.30;0.20;;;12.10;99.90;;;;;;5015795;28;20197;-66
2021/10/26 05:04:27;;;;;;;1.23;1.23;;;12.00;99.90;;;;;;5033190;28;20228;-67
2021/10/26 05:06:54;;;;;;;2.77;2.43;;;12.10;99.90;;;;;;5033271;28;20243;-66
2021/10/26 05:09:20;;;;;;;0.30;0.20;;;12.00;99.90;;;;;;5032996;28;20264;-66
2021/10/26 05:11:45;;;;;;;1.42;1.30;;;12.10;99.90;;;;;;5032674;28;20300;-66
2021/10/26 05:14:11;;;;;;;1.63;1.43;;;12.20;99.90;;;;;;5032906;28;20269;-66
2021/10/26 05:16:37;;;;;;;0.47;0.30;;;12.20;99.90;;;;;;5037147;28;20269;-66
2021/10/26 05:19:04;;;;;;;0.60;0.50;;;12.20;99.90;;;;;;5037081;28;20642;-66
2021/10/26 05:21:30;;;;;;;2.95;1.65;;;12.30;99.90;;;;;;5019490;28;20658;-66
2021/10/26 05:23:56;;;;;;;4.10;3.80;;;12.40;99.90;;;;;;5037679;28;20181;-66
2021/10/26 05:26:22;;;;;;;1.97;1.87;;;12.40;99.90;;;;;;5037521;28;20439;-71
2021/10/26 05:28:49;;;;;;;3.50;2.83;;;12.40;99.90;;;;;;5037056;28;20540;-66
2021/10/26 05:31:15;;;;;;;1.30;1.20;;;12.30;99.90;;;;;;5037032;28;20272;-66
2021/10/26 05:33:42;;;;;;;0.30;0.20;;;12.10;99.90;;;;;;5037044;28;20669;-67
2021/10/26 05:36:08;;;;;;;0.30;0.20;;;12.00;99.90;;;;;;5036805;28;20189;-67
2021/10/26 05:38:35;;;;;;;0.57;0.57;;;12.00;99.90;;;;;;5036870;28;20188;-67
2021/10/26 05:41:01;;;;;;;1.38;1.27;;;12.00;99.90;;;;;;5036501;28;20424;-67
2021/10/26 05:43:26;;;;;;;3.33;2.00;;;12.00;99.90;;;;;;5036338;28;20277;-66
2021/10/26 05:45:52;;;;;;;2.93;2.63;;;11.90;99.90;;;;;;5034934;28;20432;-64
2021/10/26 05:48:19;;;;;;;6.85;4.07;;;11.90;99.90;;;;;;5032366;28;20796;-66
2021/10/26 05:50:46;;;;;;;2.70;2.60;;;11.80;99.90;;;;;;5036192;28;20576;-67
2021/10/26 05:53:13;;;;;;;2.25;2.05;;;11.80;99.90;;;;;;5036448;28;20173;-66
2021/10/26 05:55:39;;;;;;;0.30;0.30;;;11.80;99.90;;;;;;5036401;28;20522;-66
2021/10/26 05:58:06;;;;;;;1.35;1.25;;;11.80;99.90;;;;;;5036049;28;20485;-66
2021/10/26 06:00:32;;;;;;;2.45;1.92;;;11.80;99.90;;;;;;5036492;28;20646;-66
2021/10/26 06:02:58;;;;;;;1.88;1.77;;;11.90;99.90;;;;;;5036457;28;20188;-67
2021/10/26 06:05:24;;;;;;;0.30;0.20;;;12.00;99.90;;;;;;5036046;28;20268;-65
2021/10/26 06:07:51;;;;;;;0.30;0.20;;;12.00;99.90;;;;;;5035900;28;20522;-64
2021/10/26 06:10:17;;;;;;;0.30;0.20;;;12.10;99.90;;;;;;5035161;28;20493;-66
2021/10/26 06:12:50;;;;;;;1.17;1.15;;;12.10;99.90;;;;;;5036089;28;20231;-67
2021/10/26 06:15:16;;;;;;;2.47;1.58;;;12.30;99.90;;;;;;5033372;28;20178;-66
2021/10/26 06:17:42;;;;;;;0.40;0.40;;;12.40;99.90;;;;;;5047470;28;20250;-68
2021/10/26 06:20:10;;;;;;;0.50;0.50;;;12.40;99.90;;;;;;5055225;28;20428;-64
2021/10/26 06:22:36;;;;;;;0.93;0.40;;;12.30;99.90;;;;;;5056163;28;20237;-67
2021/10/26 06:25:01;;;;;;;3.90;2.63;;;12.50;99.90;;;;;;5055247;28;20216;-67
2021/10/26 06:27:27;;;;;;;0.60;0.60;;;12.50;99.90;;;;;;5046494;28;20207;-66
2021/10/26 06:29:53;;;;;;;2.50;2.40;;;12.50;99.90;;;;;;5039535;28;20173;-67
2021/10/26 06:32:18;;;;;;;1.03;0.93;;;12.50;99.90;;;;;;5055156;28;20200;-67
2021/10/26 06:34:44;;;;;;;2.03;1.90;;;12.30;99.90;;;;;;5046938;28;20239;-64
2021/10/26 06:37:09;;;;;;;0.40;0.30;;;12.40;99.90;;;;;;5033732;28;20227;-66
2021/10/26 06:39:37;;;;;;;4.40;2.90;;;12.50;99.90;;;;;;5023280;28;20201;-67
2021/10/26 06:42:03;;;;;;;0.80;0.80;;;12.60;99.90;;;;;;5028326;28;20213;-67
2021/10/26 06:44:29;;;;;;;2.10;0.97;;;12.50;99.90;;;;;;5032065;28;20244;-64
2021/10/26 06:46:54;;;;;;;2.00;1.90;;;12.60;99.90;;;;;;5034720;28;20623;-64
2021/10/26 06:49:20;;;;;;;1.73;1.60;;;12.70;99.90;;;;;;5013174;28;20186;-64
2021/10/26 06:51:45;;;;;;;1.00;0.67;;;12.80;99.90;;;;;;5036557;28;20669;-63
2021/10/26 06:54:11;;;;;;;0.60;0.60;;;12.80;99.90;;;;;;5017794;28;20181;-64
2021/10/26 06:56:37;;;;;;;3.50;0.93;;;12.80;99.90;;;;;;5017412;28;20444;-64
2021/10/26 06:59:03;;;;;;;1.05;0.90;;;13.00;99.90;;;;;;5035013;28;20173;-63
2021/10/26 07:01:28;;;;;;;4.67;4.20;;;12.80;99.90;;;;;;5034916;28;20178;-64
2021/10/26 07:03:54;;;;;;;0.40;0.20;;;12.70;99.90;;;;;;5035069;28;20525;-64
2021/10/26 07:06:19;;;;;;;2.83;2.70;;;12.70;99.90;;;;;;5035198;28;20236;-65
2021/10/26 07:08:45;;;;;;;0.40;0.30;;;12.80;99.90;;;;;;5034552;28;20224;-64
2021/10/26 07:11:10;;;;;;;0.77;0.77;;;12.90;99.90;;;;;;5034933;28;20646;-64
2021/10/26 07:13:38;;;;;;;1.37;0.40;;;12.90;99.90;;;;;;5034688;28;20600;-66
2021/10/26 07:16:05;;;;;;;1.23;0.50;;;12.80;99.90;;;;;;5034352;28;20311;-67
2021/10/26 07:18:35;;;;;;;0.32;0.30;;;12.80;99.90;;;;;;5017172;28;20174;-67
2021/10/26 07:21:00;;;;;;;1.60;1.23;;;12.80;99.90;;;;;;5017383;28;20189;-67
2021/10/26 07:23:26;;;;;;;0.90;0.90;;;12.80;99.90;;;;;;5017598;28;20192;-68
2021/10/26 07:25:53;;;;;;;1.33;1.23;;;12.90;99.90;;;;;;5038413;28;20458;-63
2021/10/26 07:28:22;;;;;;;0.65;0.60;;;12.70;99.90;;;;;;5054852;28;20482;-67
2021/10/26 07:30:47;;;;;;;0.30;0.20;;;12.80;99.90;;;;;;5038651;28;20213;-66
2021/10/26 07:33:19;;;;;;;2.90;2.70;;;13.10;99.90;;;;;;5037052;28;20287;-66
2021/10/26 07:35:47;;;;;;;2.65;2.47;;;13.20;99.90;;;;;;5018036;28;20201;-66
2021/10/26 07:38:17;;;;;;;0.30;0.20;;;13.20;99.90;;;;;;5033309;28;20227;-67
2021/10/26 07:40:42;;;;;;;2.25;2.03;;;13.30;99.90;;;;;;5034489;28;20193;-70
2021/10/26 07:43:08;;;;;;;4.00;0.87;;;13.20;99.90;;;;;;5034200;28;20592;-67
2021/10/26 07:45:33;;;;;;;2.53;2.33;;;13.40;99.90;;;;;;5035139;28;20189;-69
2021/10/26 07:47:59;;;;;;;0.30;0.20;;;13.40;99.90;;;;;;5034140;28;20190;-67
2021/10/26 07:50:25;;;;;;;1.20;1.13;;;13.50;99.90;;;;;;5033524;28;20183;-69
2021/10/26 07:52:50;;;;;;;0.30;0.30;;;13.50;99.90;;;;;;5033947;28;20657;-66
2021/10/26 07:55:16;;;;;;;1.63;1.57;;;13.60;99.90;;;;;;5034105;28;20177;-66
2021/10/26 07:57:42;;;;;;;6.90;4.78;;;13.50;99.90;;;;;;5015995;28;20173;-66
2021/10/26 08:00:08;;;;;;;1.70;1.07;;;13.60;99.90;;;;;;5016472;28;20200;-68
2021/10/26 08:02:34;;;;;;;0.40;0.28;;;13.50;99.90;;;;;;5028208;28;20190;-68
2021/10/26 08:04:59;;;;;;;1.83;1.73;;;13.60;99.90;;;;;;5032174;28;20239;-68
2021/10/26 08:07:26;;;;;;;0.73;0.73;;;13.80;99.90;;;;;;5033482;28;20185;-67
2021/10/26 08:09:53;;;;;;;0.40;0.30;;;13.90;99.90;;;;;;5033131;28;20268;-67
2021/10/26 08:12:21;;;;;;;1.83;1.70;;;14.00;99.90;;;;;;5033344;28;20776;-67
2021/10/26 08:14:47;;;;;;;1.55;1.45;;;13.90;99.90;;;;;;5038693;28;20228;-68
2021/10/26 08:17:13;;;;;;;0.80;0.80;;;13.90;99.90;;;;;;5033728;28;20278;-68
2021/10/26 08:19:41;;;;;;;5.18;4.65;;;14.00;99.90;;;;;;5033514;28;21054;-67
2021/10/26 08:22:11;;;;;;;2.78;2.67;;;13.80;99.90;;;;;;5033660;28;20181;-69
2021/10/26 08:24:37;;;;;;;0.68;0.68;;;13.70;99.90;;;;;;5033150;28;20185;-68
2021/10/26 08:27:09;;;;;;;7.30;4.13;;;13.80;99.90;;;;;;5033633;28;20181;-69
2021/10/26 08:37:33;;;;;;;4.05;3.78;;;13.40;99.90;;;;;;5053470;28;20184;-67
2021/10/26 08:39:58;;;;;;;3.30;2.00;;;13.40;99.90;;;;;;5053036;28;20173;-68
2021/10/26 08:42:25;;;;;;;7.97;6.73;;;13.50;99.90;;;;;;5053548;28;20606;-68
2021/10/26 08:44:51;;;;;;;0.95;0.73;;;13.60;99.90;;;;;;5053241;28;20180;-67
2021/10/26 08:47:17;;;;;;;4.45;2.60;;;13.50;99.90;;;;;;5047748;28;20189;-65
2021/10/26 08:49:46;;;;;;;3.13;1.80;;;13.60;99.90;;;;;;5032725;28;20239;-66
2021/10/26 08:52:12;;;;;;;3.50;2.67;;;13.60;99.90;;;;;;5033315;28;20475;-66
2021/10/26 08:54:38;;;;;;;1.60;1.10;;;13.70;99.90;;;;;;5033353;28;20550;-66
2021/10/26 08:57:05;;;;;;;1.13;0.70;;;13.70;99.90;;;;;;5032957;28;20174;-67
2021/10/26 08:59:30;;;;;;;0.85;0.75;;;13.80;99.90;;;;;;5032873;28;20681;-71
2021/10/26 09:01:59;;;;;;;1.17;1.17;;;13.90;99.90;;;;;;5032990;28;20273;-68
2021/10/26 09:04:34;;;;;;;5.68;5.35;;;13.90;99.90;;;;;;5032960;28;20185;-67
2021/10/26 09:07:05;;;;;;;0.68;0.68;;;14.10;99.90;;;;;;5033166;28;20642;-66
2021/10/26 09:09:34;;;;;;;0.40;0.32;;;14.20;83.10;;;;;;5032779;28;20597;-66
2021/10/26 09:17:58;;;;;;;5.35;4.90;;;14.40;1.00;;;;;;5033840;28;20192;-68
2021/10/26 09:20:27;;;;;;;2.15;2.03;;;14.40;1.00;;;;;;5028170;28;20182;-68
2021/10/26 09:22:58;;;;;;;2.05;0.93;;;14.10;1.00;;;;;;5030597;28;20193;-69
2021/10/26 09:25:36;;;;;;;2.55;2.08;;;14.00;1.00;;;;;;5027990;28;20209;-67
2021/10/26 09:28:17;;;;;;;1.30;1.20;;;13.90;1.00;;;;;;5024107;28;20173;-68
2021/10/26 09:30:58;;;;;;;7.55;5.43;;;14.10;1.00;;;;;;5031497;28;20201;-67
2021/10/26 09:33:38;;;;;;;4.68;4.43;;;14.50;1.00;;;;;;5032246;28;20166;-67
2021/10/26 09:36:23;;;;;;;2.25;1.13;;;14.60;1.00;;;;;;5032625;28;20201;-66
2021/10/26 09:39:06;;;;;;;0.90;0.90;;;15.10;1.00;;;;;;5032500;28;20238;-66
2021/10/26 09:41:34;;;;;;;2.25;2.15;;;15.20;1.00;;;;;;5033193;28;20177;-67
2021/10/26 09:44:18;;;;;;;3.42;2.53;;;15.40;99.90;;;;;;5032703;28;20567;-69
2021/10/26 09:46:55;;;;;;;5.10;1.60;;;15.20;99.90;;;;;;5032664;28;20186;-68
2021/10/26 09:49:36;;;;;;;1.67;0.65;;;15.10;99.90;;;;;;5032662;28;20178;-67
2021/10/26 09:52:21;;;;;;;3.00;2.72;;;14.90;1.00;;;;;;5032642;28;20296;-67
2021/10/26 09:54:57;;;;;;;2.55;2.35;;;14.70;1.00;;;;;;5032735;28;20162;-67
2021/10/26 09:57:35;;;;;;;3.30;2.60;;;14.90;1.00;;;;;;5033018;28;20233;-68
2021/10/26 10:00:04;;;;;;;1.38;1.25;;;15.10;1.00;;;;;;5032421;28;20232;-68
2021/10/26 10:02:30;;;;;;;1.50;1.40;;;15.00;1.00;;;;;;5035771;28;20574;-68
2021/10/26 10:04:58;;;;;;;0.90;0.90;;;14.80;1.00;;;;;;5018597;28;20215;-68
2021/10/26 10:07:32;;;;;;;3.53;1.92;;;14.90;1.00;;;;;;5036204;28;20185;-68
2021/10/26 10:10:06;;;;;;;1.73;1.63;;;15.10;99.90;;;;;;5036173;28;20263;-67
2021/10/26 10:12:33;;;;;;;5.70;2.28;;;14.80;99.90;;;;;;5035903;28;20217;-67
2021/10/26 10:15:08;;;;;;;4.07;1.20;;;14.60;1.00;;;;;;5035782;28;20202;-67
2021/10/26 10:17:37;;;;;;;0.50;0.50;;;14.50;1.00;;;;;;5034734;28;20181;-70
2021/10/26 10:20:09;;;;;;;1.23;1.20;;;14.70;1.00;;;;;;5018908;28;20174;-71
2021/10/26 10:22:38;;;;;;;2.35;2.15;;;14.80;1.00;;;;;;5035797;28;20173;-70
2021/10/26 10:25:08;;;;;;;0.50;0.30;;;14.80;1.00;;;;;;5035539;28;20194;-71
2021/10/26 10:27:39;;;;;;;1.40;0.77;;;14.90;99.90;;;;;;5018043;28;20188;-70
2021/10/26 10:30:09;;;;;;;0.50;0.45;;;15.10;99.90;;;;;;5035609;28;20205;-71
2021/10/26 10:32:35;;;;;;;0.40;0.30;;;15.30;8.40;;;;;;5033819;28;20212;-71
2021/10/26 10:35:07;;;;;;;9.83;1.13;;;15.30;1.00;;;;;;5032991;28;20177;-72
2021/10/26 10:37:34;;;;;;;0.73;0.73;;;15.20;1.00;;;;;;5034902;28;20178;-71
2021/10/26 10:40:03;;;;;;;1.23;0.93;;;15.20;1.00;;;;;;5043598;28;20575;-67
2021/10/26 10:42:32;;;;;;;0.40;0.32;;;15.10;1.00;;;;;;5037900;28;20363;-71
2021/10/26 10:45:01;;;;;;;8.07;2.33;;;14.90;1.00;;;;;;5037682;28;20181;-71
2021/10/26 10:47:37;;;;;;;1.38;1.05;;;14.90;1.00;;;;;;5046945;28;20178;-70
2021/10/26 10:50:04;;;;;;;2.75;2.53;;;14.60;99.90;;;;;;5034876;28;20603;-69
2021/10/26 10:52:34;;;;;;;2.30;2.13;;;14.60;99.90;;;;;;5035040;28;20205;-69
2021/10/26 10:55:18;;;;;;;0.60;0.45;;;14.40;99.90;;;;;;5034938;28;20169;-68
2021/10/26 10:57:44;;;;;;;3.08;2.92;;;14.40;99.90;;;;;;5006811;28;20185;-68
2021/10/26 11:00:30;;;;;;;3.03;1.97;;;14.30;99.90;;;;;;5023107;28;20209;-68
2021/10/26 11:02:57;;;;;;;0.50;0.47;;;14.40;1.00;;;;;;5041531;28;20323;-68
2021/10/26 11:05:35;;;;;;;7.80;2.85;;;14.60;99.90;;;;;;5036688;28;20640;-71
2021/10/26 11:08:07;;;;;;;2.38;1.00;;;14.50;99.90;;;;;;5038915;28;20196;-70
2021/10/26 11:10:51;;;;;;;1.20;1.20;;;14.70;99.90;;;;;;5034452;28;20177;-69
2021/10/26 11:13:32;;;;;;;0.98;0.77;;;14.80;99.90;;;;;;5026778;28;20309;-67
2021/10/26 11:16:03;;;;;;;0.75;0.75;;;15.10;53.60;;;;;;5052695;28;20275;-69
2021/10/26 11:18:39;;;;;;;0.50;0.45;;;15.20;1.00;;;;;;5054647;28;20172;-68
2021/10/26 11:21:24;;;;;;;0.50;0.37;;;15.20;1.00;;;;;;5037084;28;20212;-71
2021/10/26 11:24:10;;;;;;;0.65;0.57;;;15.20;1.00;;;;;;5052753;28;20920;-69
2021/10/26 11:26:44;;;;;;;0.98;0.50;;;15.30;1.00;;;;;;5054078;28;20208;-69
2021/10/26 11:29:15;;;;;;;1.77;1.67;;;15.70;99.90;;;;;;5054049;28;20181;-70
2021/10/26 11:31:48;;;;;;;1.48;1.38;;;15.80;99.90;;;;;;5054299;28;20211;-67
2021/10/26 11:34:31;;;;;;;0.40;0.15;;;15.80;1.00;;;;;;5035939;28;20509;-67
2021/10/26 11:37:06;;;;;;;1.53;1.43;;;16.00;1.00;;;;;;5014706;28;20182;-68
2021/10/26 11:39:33;;;;;;;1.50;1.40;;;16.10;99.90;;;;;;5031952;28;20435;-69
2021/10/26 11:41:59;;;;;;;1.57;1.43;;;16.30;1.00;;;;;;5034375;28;20876;-70
2021/10/26 11:44:27;;;;;;;0.93;0.77;;;16.30;1.00;;;;;;5034272;28;20768;-71
2021/10/26 11:46:53;;;;;;;1.63;1.53;;;16.10;1.00;;;;;;5033924;28;20717;-70
2021/10/26 11:49:22;;;;;;;0.97;0.97;;;16.00;1.00;;;;;;5034019;28;20515;-70
2021/10/26 11:51:58;;;;;;;0.40;0.20;;;16.00;1.00;;;;;;5033651;28;20518;-71
2021/10/26 11:54:29;;;;;;;0.50;0.40;;;16.00;99.90;;;;;;5033782;28;21075;-70
2021/10/26 11:56:57;;;;;;;1.92;1.27;;;15.90;99.90;;;;;;5033949;28;20482;-71
2021/10/26 11:59:22;;;;;;;0.80;0.55;;;15.80;99.90;;;;;;5033549;28;20252;-70
2021/10/26 12:01:54;;;;;;;4.93;2.30;;;15.50;1.00;;;;;;5034179;28;20281;-71
2021/10/26 12:04:25;;;;;;;2.78;2.33;;;15.50;1.00;;;;;;5033537;28;20264;-72
2021/10/26 12:06:55;;;;;;;0.40;0.20;;;15.60;99.90;;;;;;5022668;28;20207;-71
2021/10/26 12:09:22;;;;;;;3.80;1.20;;;15.50;1.00;;;;;;5053516;28;20204;-70
2021/10/26 12:11:50;;;;;;;1.38;1.10;;;15.60;1.00;;;;;;5053969;28;20254;-69
2021/10/26 12:14:17;;;;;;;0.63;0.45;;;15.70;1.00;;;;;;5053627;28;20187;-68
2021/10/26 12:17:11;;;;;;;0.60;0.50;;;15.90;1.00;;;;;;5034705;28;20180;-68
2021/10/26 12:19:50;;;;;;;2.60;2.40;;;16.10;99.90;;;;;;5033176;28;20435;-71
2021/10/26 12:22:19;;;;;;;1.37;1.27;;;16.00;1.00;;;;;;5033504;28;20505;-70
2021/10/26 12:24:49;;;;;;;2.38;2.17;;;16.00;42.60;;;;;;5032874;28;20436;-68
2021/10/26 12:27:23;;;;;;;4.23;1.53;;;15.80;99.90;;;;;;5033378;28;20192;-68
2021/10/26 12:29:49;;;;;;;0.68;0.68;;;15.60;99.90;;;;;;5015948;28;20428;-68
2021/10/26 12:32:15;;;;;;;2.55;1.25;;;15.50;1.00;;;;;;5033269;28;20201;-67
2021/10/26 12:34:43;;;;;;;0.93;0.70;;;15.20;1.00;;;;;;5033434;28;20185;-69
2021/10/26 12:37:16;;;;;;;3.72;2.63;;;15.20;99.90;;;;;;5033327;28;20601;-69
2021/10/26 12:39:45;;;;;;;1.10;0.77;;;15.30;1.00;;;;;;5033079;28;20184;-68
2021/10/26 12:42:27;;;;;;;2.85;2.65;;;15.20;72.30;;;;;;5033281;28;20201;-71
2021/10/26 12:44:53;;;;;;;0.40;0.17;;;15.30;99.90;;;;;;5033509;28;20181;-71
2021/10/26 12:47:19;;;;;;;0.82;0.82;;;15.40;99.90;;;;;;5042187;28;20185;-72
2021/10/26 12:49:45;;;;;;;1.17;1.07;;;15.70;1.00;;;;;;5053113;28;20189;-70
2021/10/26 12:52:12;;;;;;;0.70;0.60;;;15.80;99.90;;;;;;5052588;28;20516;-70
2021/10/26 12:54:38;;;;;;;0.40;0.30;;;15.90;72.50;;;;;;5052905;28;20173;-69
2021/10/26 12:57:04;;;;;;;2.80;2.60;;;16.00;99.90;;;;;;5047337;28;20166;-69
2021/10/26 12:59:29;;;;;;;0.97;0.50;;;16.00;99.90;;;;;;5032567;28;20623;-69
2021/10/26 13:02:06;;;;;;;0.60;0.47;;;16.00;99.90;;;;;;5033051;28;20347;-69
2021/10/26 13:04:38;;;;;;;0.40;0.20;;;15.90;1.00;;;;;;5033394;28;20192;-69
2021/10/26 13:07:09;;;;;;;0.73;0.45;;;15.90;1.00;;;;;;5040397;28;20614;-70
2021/10/26 13:09:39;;;;;;;3.63;1.42;;;15.80;1.00;;;;;;5036158;28;20570;-73